createdAt,value
2022-09-22T00:01:32.025Z,11.77
2022-09-22T00:04:03.659Z,11.75
2022-09-22T00:06:34.787Z,11.71
2022-09-22T00:09:04.052Z,11.69
2022-09-22T00:11:36.083Z,11.66
2022-09-22T00:14:07.067Z,11.64
2022-09-22T00:16:39.050Z,11.63
2022-09-22T00:19:07.778Z,11.63
2022-09-22T00:21:37.194Z,11.63
2022-09-22T00:24:08.075Z,11.64
2022-09-22T00:26:36.696Z,11.62
2022-09-22T00:29:05.376Z,11.63
2022-09-22T00:31:33.167Z,11.62
2022-09-22T00:34:01.145Z,11.62
2022-09-22T00:36:29.588Z,11.61
2022-09-22T00:38:59.967Z,11.59
2022-09-22T00:41:30.272Z,11.59
2022-09-22T00:44:32.983Z,11.53
2022-09-22T00:47:05.048Z,11.55
2022-09-22T00:49:38.949Z,11.54
2022-09-22T00:52:07.339Z,11.53
2022-09-22T00:54:36.553Z,11.54
2022-09-22T00:57:09.398Z,11.52
2022-09-22T00:59:37.552Z,11.52
2022-09-22T01:02:07.629Z,11.51
2022-09-22T01:04:35.793Z,11.49
2022-09-22T01:07:05.718Z,11.48
2022-09-22T01:09:34.213Z,11.47
2022-09-22T01:12:04.868Z,11.47
2022-09-22T01:14:53.819Z,11.42
2022-09-22T01:17:30.780Z,11.39
2022-09-22T01:20:32.164Z,11.31
2022-09-22T01:23:25.233Z,11.28
2022-09-22T01:26:16.545Z,11.21
2022-09-22T01:29:05.870Z,11.19
2022-09-22T01:31:39.265Z,11.15
2022-09-22T01:34:13.326Z,11.12
2022-09-22T01:36:48.144Z,11.07
2022-09-22T01:39:19.611Z,11.05
2022-09-22T01:41:53.660Z,11.02
2022-09-22T01:44:28.719Z,11.00
2022-09-22T01:47:03.958Z,10.97
2022-09-22T01:49:36.583Z,10.95
2022-09-22T01:52:10.812Z,10.93
2022-09-22T01:54:42.767Z,10.89
2022-09-22T01:57:15.433Z,10.87
2022-09-22T01:59:47.899Z,10.84
2022-09-22T02:02:23.620Z,10.81
2022-09-22T02:04:58.116Z,10.78
2022-09-22T02:07:33.838Z,10.73
2022-09-22T02:10:06.603Z,10.71
2022-09-22T02:12:35.879Z,10.68
2022-09-22T02:15:03.813Z,10.67
2022-09-22T02:17:35.312Z,10.65
2022-09-22T02:20:06.409Z,10.62
2022-09-22T02:22:34.198Z,10.59
2022-09-22T02:25:02.223Z,10.55
2022-09-22T02:27:36.832Z,10.53
2022-09-22T02:30:08.195Z,10.50
2022-09-22T02:32:40.277Z,10.48
2022-09-22T02:35:09.993Z,10.45
2022-09-22T02:37:43.459Z,10.42
2022-09-22T02:40:19.014Z,10.40
2022-09-22T02:42:50.588Z,10.37
2022-09-22T02:45:23.585Z,10.35
2022-09-22T02:47:57.212Z,10.33
2022-09-22T02:50:28.254Z,10.30
2022-09-22T02:52:59.594Z,10.27
2022-09-22T02:55:27.313Z,10.26
2022-09-22T02:57:55.211Z,10.24
2022-09-22T03:00:23.209Z,10.20
2022-09-22T03:02:50.958Z,10.18
2022-09-22T03:05:20.393Z,10.16
2022-09-22T03:07:48.184Z,10.14
2022-09-22T03:10:16.272Z,10.14
2022-09-22T03:13:09.058Z,10.11
2022-09-22T03:15:31.896Z,10.09
2022-09-22T03:18:00.029Z,10.07
2022-09-22T03:20:29.301Z,10.05
2022-09-22T03:22:57.070Z,10.01
2022-09-22T03:25:24.857Z,10.00
2022-09-22T03:27:52.595Z,9.99
2022-09-22T03:30:21.093Z,9.96
2022-09-22T03:32:48.856Z,9.94
2022-09-22T03:35:16.689Z,9.92
2022-09-22T03:37:46.675Z,9.90
2022-09-22T03:40:14.488Z,9.87
2022-09-22T03:42:42.518Z,9.85
2022-09-22T03:45:12.648Z,9.83
2022-09-22T03:47:40.416Z,9.81
2022-09-22T03:50:08.975Z,9.80
2022-09-22T03:52:36.834Z,9.77
2022-09-22T03:55:06.961Z,9.77
2022-09-22T03:57:34.774Z,9.76
2022-09-22T04:00:02.813Z,9.74
2022-09-22T04:02:30.597Z,9.76
2022-09-22T04:04:58.460Z,9.76
2022-09-22T04:07:26.172Z,9.76
2022-09-22T04:09:54.288Z,9.76
2022-09-22T04:12:23.436Z,9.79
2022-09-22T04:14:51.154Z,9.78
2022-09-22T04:17:20.532Z,9.80
2022-09-22T04:19:48.464Z,9.80
2022-09-22T04:22:16.373Z,9.81
2022-09-22T04:24:44.253Z,9.80
2022-09-22T04:27:20.658Z,9.80
2022-09-22T04:29:50.499Z,9.81
2022-09-22T04:32:18.990Z,9.80
2022-09-22T04:34:47.767Z,9.80
2022-09-22T04:37:15.564Z,9.78
2022-09-22T04:39:43.946Z,9.78
2022-09-22T04:42:11.709Z,9.76
2022-09-22T04:44:39.436Z,9.73
2022-09-22T04:47:08.667Z,9.72
2022-09-22T04:49:36.378Z,9.67
2022-09-22T04:52:04.494Z,9.64
2022-09-22T04:54:32.503Z,9.62
2022-09-22T04:57:00.381Z,9.60
2022-09-22T04:59:29.520Z,9.57
2022-09-22T05:01:57.272Z,9.54
2022-09-22T05:04:26.356Z,9.51
2022-09-22T05:06:54.144Z,9.49
2022-09-22T05:09:21.911Z,9.46
2022-09-22T05:11:49.976Z,9.43
2022-09-22T05:14:21.583Z,9.41
2022-09-22T05:16:52.371Z,9.38
2022-09-22T05:19:21.051Z,9.37
2022-09-22T05:21:50.376Z,9.34
2022-09-22T05:24:18.159Z,9.32
2022-09-22T05:26:45.911Z,9.31
2022-09-22T05:29:13.713Z,9.28
2022-09-22T05:31:41.478Z,9.28
2022-09-22T05:34:09.594Z,9.27
2022-09-22T05:36:37.496Z,9.25
2022-09-22T05:39:06.684Z,9.26
2022-09-22T05:41:34.663Z,9.24
2022-09-22T05:44:02.939Z,9.22
2022-09-22T05:46:30.654Z,9.21
2022-09-22T05:48:58.448Z,9.20
2022-09-22T05:51:26.220Z,9.18
2022-09-22T05:53:54.038Z,9.18
2022-09-22T05:56:23.181Z,9.16
2022-09-22T05:58:51.005Z,9.16
2022-09-22T06:01:19.015Z,9.15
2022-09-22T06:03:47.136Z,9.15
2022-09-22T06:06:15.255Z,9.15
2022-09-22T06:08:48.388Z,9.14
2022-09-22T06:11:16.794Z,9.13
2022-09-22T06:13:46.118Z,9.13
2022-09-22T06:16:13.868Z,9.13
2022-09-22T06:18:41.592Z,9.13
2022-09-22T06:21:09.739Z,9.14
2022-09-22T06:23:42.117Z,9.13
2022-09-22T06:26:11.028Z,9.13
2022-09-22T06:28:38.778Z,9.15
2022-09-22T06:31:07.992Z,9.17
2022-09-22T06:33:35.908Z,9.20
2022-09-22T06:36:04.209Z,9.20
2022-09-22T06:38:32.949Z,9.21
2022-09-22T06:41:04.274Z,9.24
2022-09-22T06:43:32.995Z,9.39
2022-09-22T06:46:02.801Z,9.63
2022-09-22T06:48:32.101Z,9.88
2022-09-22T06:51:00.066Z,10.11
2022-09-22T06:53:29.806Z,10.34
2022-09-22T06:55:58.442Z,10.59
2022-09-22T06:58:28.016Z,10.86
2022-09-22T07:00:55.824Z,11.13
2022-09-22T07:03:26.458Z,11.38
2022-09-22T07:05:57.479Z,11.63
2022-09-22T07:08:26.222Z,11.88
2022-09-22T07:10:56.237Z,12.10
2022-09-22T07:13:24.112Z,12.34
2022-09-22T07:15:52.203Z,12.59
2022-09-22T07:18:20.023Z,12.82
2022-09-22T07:20:47.795Z,13.04
2022-09-22T07:23:19.057Z,13.26
2022-09-22T07:25:57.191Z,13.47
2022-09-22T07:28:25.934Z,13.70
2022-09-22T07:30:53.709Z,13.92
2022-09-22T07:33:23.276Z,14.14
2022-09-22T07:35:59.628Z,14.33
2022-09-22T07:38:36.549Z,14.56
2022-09-22T07:41:06.781Z,14.81
2022-09-22T07:43:35.092Z,15.06
2022-09-22T07:46:03.741Z,15.29
2022-09-22T07:48:37.787Z,15.54
2022-09-22T07:51:12.866Z,15.73
2022-09-22T07:53:46.873Z,15.87
2022-09-22T07:56:16.348Z,16.03
2022-09-22T07:58:49.989Z,16.21
2022-09-22T08:01:18.944Z,16.42
2022-09-22T08:03:47.296Z,16.66
2022-09-22T08:06:18.337Z,16.94
2022-09-22T08:08:52.403Z,17.18
2022-09-22T08:11:22.915Z,17.36
2022-09-22T08:13:53.331Z,17.48
2022-09-22T08:16:22.631Z,17.31
2022-09-22T08:18:56.705Z,17.53
2022-09-22T08:21:24.651Z,17.83
2022-09-22T08:23:54.442Z,18.09
2022-09-22T08:26:22.831Z,18.37
2022-09-22T08:28:53.078Z,18.52
2022-09-22T08:31:21.598Z,18.38
2022-09-22T08:33:52.005Z,18.49
2022-09-22T08:36:19.854Z,18.69
2022-09-22T08:38:49.388Z,18.82
2022-09-22T08:41:26.326Z,18.77
2022-09-22T08:43:56.385Z,18.78
2022-09-22T08:46:28.400Z,18.64
2022-09-22T08:49:16.179Z,18.72
2022-09-22T08:51:55.630Z,18.61
2022-09-22T08:54:28.475Z,18.70
2022-09-22T08:57:21.501Z,18.92
2022-09-22T08:59:54.335Z,19.08
2022-09-22T09:02:50.711Z,19.10
2022-09-22T09:05:48.510Z,19.12
2022-09-22T09:08:43.923Z,19.10
2022-09-22T09:11:26.368Z,19.19
2022-09-22T09:14:13.008Z,19.38
2022-09-22T09:16:49.883Z,19.35
2022-09-22T09:19:20.253Z,19.43
2022-09-22T09:21:54.199Z,19.53
2022-09-22T09:27:24.442Z,19.83
2022-09-22T09:30:04.497Z,19.75
2022-09-22T09:32:43.309Z,19.79
2022-09-22T09:35:15.568Z,19.98
2022-09-22T09:37:46.113Z,20.20
2022-09-22T09:40:18.154Z,20.43
2022-09-22T09:42:48.815Z,20.61
2022-09-22T09:45:23.692Z,20.79
2022-09-22T09:48:20.397Z,20.75
2022-09-22T09:50:50.639Z,20.72
2022-09-22T09:53:31.132Z,20.58
2022-09-22T09:55:59.032Z,20.65
2022-09-22T09:58:44.499Z,20.84
2022-09-22T10:01:16.618Z,20.58
2022-09-22T10:03:48.309Z,20.56
2022-09-22T10:06:25.224Z,20.57
2022-09-22T10:08:53.392Z,20.77
2022-09-22T10:11:30.972Z,20.82
2022-09-22T10:14:01.143Z,20.96
2022-09-22T10:16:34.300Z,21.11
2022-09-22T10:19:23.155Z,21.24
2022-09-22T10:21:51.185Z,21.45
2022-09-22T10:24:31.885Z,21.50
2022-09-22T10:27:02.567Z,21.53
2022-09-22T10:29:33.192Z,21.64
2022-09-22T10:32:07.618Z,21.75
2022-09-22T10:34:37.866Z,21.94
2022-09-22T10:37:10.701Z,22.10
2022-09-22T10:39:45.124Z,22.13
2022-09-22T10:42:25.846Z,22.05
2022-09-22T10:44:57.295Z,22.07
2022-09-22T10:47:34.030Z,22.21
2022-09-22T10:50:25.245Z,22.36
2022-09-22T10:52:58.491Z,22.50
2022-09-22T10:55:31.277Z,22.61
2022-09-22T10:58:26.821Z,22.62
2022-09-22T11:01:09.472Z,22.48
2022-09-22T11:04:11.537Z,22.39
2022-09-22T11:07:17.676Z,22.38
2022-09-22T11:10:10.793Z,22.56
2022-09-22T11:12:49.248Z,22.67
2022-09-22T11:15:27.191Z,22.84
2022-09-22T11:18:27.692Z,22.84
2022-09-22T11:21:05.687Z,22.82
2022-09-22T11:23:56.934Z,22.84
2022-09-22T11:26:37.937Z,22.88
2022-09-22T11:29:30.280Z,22.85
2022-09-22T11:32:07.194Z,22.95
2022-09-22T11:34:56.019Z,22.81
2022-09-22T11:37:44.088Z,22.79
2022-09-22T11:40:33.611Z,22.62
2022-09-22T11:43:16.814Z,22.50
2022-09-22T11:45:50.414Z,22.62
2022-09-22T11:48:29.838Z,22.72
2022-09-22T11:51:13.421Z,22.88
2022-09-22T11:54:07.794Z,22.72
2022-09-22T11:56:41.784Z,22.74
2022-09-22T11:59:32.542Z,22.73
2022-09-22T12:02:06.162Z,22.78
2022-09-22T12:04:40.894Z,22.80
2022-09-22T12:07:16.348Z,22.91
2022-09-22T12:09:49.030Z,22.99
2022-09-22T12:12:19.695Z,23.02
2022-09-22T12:14:56.279Z,23.02
2022-09-22T12:17:30.565Z,23.03
2022-09-22T12:20:08.653Z,23.01
2022-09-22T12:22:55.065Z,22.94
2022-09-22T12:25:49.796Z,22.87
2022-09-22T12:28:20.695Z,22.83
2022-09-22T12:31:02.293Z,22.54
2022-09-22T12:33:30.969Z,22.52
2022-09-22T12:36:00.163Z,22.48
2022-09-22T12:38:30.367Z,22.49
2022-09-22T12:41:03.043Z,22.52
2022-09-22T12:43:32.796Z,22.51
2022-09-22T12:46:07.116Z,22.43
2022-09-22T12:48:38.052Z,22.41
2022-09-22T12:51:31.490Z,22.37
2022-09-22T12:54:48.095Z,22.44
2022-09-22T12:57:29.260Z,22.54
2022-09-22T13:00:27.929Z,22.49
2022-09-22T13:02:58.558Z,22.56
2022-09-22T13:05:35.630Z,22.61
2022-09-22T13:08:04.246Z,22.73
2022-09-22T13:10:41.623Z,22.69
2022-09-22T13:13:25.463Z,22.70
2022-09-22T13:15:59.388Z,22.77
2022-09-22T13:18:32.056Z,22.73
2022-09-22T13:21:00.869Z,22.75
2022-09-22T13:23:29.017Z,22.79
2022-09-22T13:26:06.230Z,22.82
2022-09-22T13:28:35.434Z,22.87
2022-09-22T13:31:06.434Z,22.83
2022-09-22T13:33:36.394Z,22.84
2022-09-22T13:36:07.613Z,22.93
2022-09-22T13:38:39.336Z,23.00
2022-09-22T13:41:12.447Z,23.06
2022-09-22T13:43:45.603Z,23.11
2022-09-22T13:46:22.649Z,23.14
2022-09-22T13:48:52.458Z,23.24
2022-09-22T13:51:20.297Z,23.37
2022-09-22T13:53:52.294Z,23.40
2022-09-22T13:56:23.460Z,23.41
2022-09-22T13:58:56.944Z,23.39
2022-09-22T14:01:28.039Z,23.31
2022-09-22T14:03:56.884Z,23.27
2022-09-22T14:06:27.618Z,23.45
2022-09-22T14:08:57.435Z,23.61
2022-09-22T14:11:29.515Z,23.76
2022-09-22T14:14:00.675Z,23.73
2022-09-22T14:16:32.690Z,23.73
2022-09-22T14:19:04.787Z,23.76
2022-09-22T14:21:33.638Z,23.73
2022-09-22T14:24:02.484Z,23.65
2022-09-22T14:26:35.809Z,23.58
2022-09-22T14:29:17.253Z,23.30
2022-09-22T14:31:48.181Z,23.21
2022-09-22T14:34:21.281Z,23.28
2022-09-22T14:36:51.971Z,23.38
2022-09-22T14:39:24.951Z,23.46
2022-09-22T14:41:59.034Z,23.51
2022-09-22T14:44:43.467Z,23.43
2022-09-22T14:47:27.770Z,23.51
2022-09-22T14:50:10.784Z,23.45
2022-09-22T14:52:41.620Z,23.45
2022-09-22T14:55:16.886Z,23.42
2022-09-22T14:57:47.605Z,23.44
2022-09-22T15:00:35.912Z,23.42
2022-09-22T15:03:07.595Z,23.31
2022-09-22T15:05:36.177Z,23.22
2022-09-22T15:08:03.909Z,23.23
2022-09-22T15:10:34.099Z,23.26
2022-09-22T15:13:19.999Z,23.13
2022-09-22T15:15:50.258Z,23.10
2022-09-22T15:18:19.498Z,23.12
2022-09-22T15:20:49.931Z,23.14
2022-09-22T15:23:21.997Z,23.16
2022-09-22T15:25:50.761Z,23.12
2022-09-22T15:28:20.197Z,23.13
2022-09-22T15:30:50.562Z,23.06
2022-09-22T15:33:19.254Z,22.91
2022-09-22T15:35:49.320Z,22.90
2022-09-22T15:38:19.973Z,22.82
2022-09-22T15:40:49.161Z,22.76
2022-09-22T15:43:23.193Z,22.62
2022-09-22T15:45:56.176Z,22.55
2022-09-22T15:48:27.843Z,22.53
2022-09-22T15:50:56.512Z,22.49
2022-09-22T15:53:25.385Z,22.45
2022-09-22T15:55:54.281Z,22.40
2022-09-22T15:58:23.958Z,22.30
2022-09-22T16:00:53.678Z,22.17
2022-09-22T16:03:23.958Z,22.08
2022-09-22T16:05:57.105Z,21.95
2022-09-22T16:08:29.571Z,21.91
2022-09-22T16:10:58.015Z,21.86
2022-09-22T16:13:27.063Z,21.83
2022-09-22T16:15:56.477Z,21.84
2022-09-22T16:18:24.465Z,21.81
2022-09-22T16:20:52.334Z,21.75
2022-09-22T16:23:20.449Z,21.63
2022-09-22T16:25:53.770Z,21.62
2022-09-22T16:28:21.564Z,21.58
2022-09-22T16:30:49.548Z,21.57
2022-09-22T16:33:18.678Z,21.57
2022-09-22T16:35:46.580Z,21.58
2022-09-22T16:38:14.456Z,21.58
2022-09-22T16:40:42.619Z,21.55
2022-09-22T16:43:10.965Z,21.53
2022-09-22T16:45:56.113Z,21.49
2022-09-22T16:48:25.955Z,21.44
2022-09-22T16:50:55.075Z,21.41
2022-09-22T16:53:23.065Z,21.36
2022-09-22T16:55:50.890Z,21.30
2022-09-22T16:58:18.767Z,21.22
2022-09-22T17:00:47.214Z,21.15
2022-09-22T17:03:15.043Z,21.11
2022-09-22T17:05:45.068Z,21.04
2022-09-22T17:08:13.381Z,20.96
2022-09-22T17:10:41.113Z,20.83
2022-09-22T17:13:08.850Z,20.75
2022-09-22T17:15:36.851Z,20.67
2022-09-22T17:18:05.319Z,20.57
2022-09-22T17:20:33.142Z,20.48
2022-09-22T17:23:02.558Z,20.40
2022-09-22T17:25:30.377Z,20.25
2022-09-22T17:27:58.385Z,20.15
2022-09-22T17:30:26.429Z,20.04
2022-09-22T17:32:54.216Z,19.93
2022-09-22T17:35:21.999Z,19.80
2022-09-22T17:37:52.203Z,19.72
2022-09-22T17:40:21.460Z,19.65
2022-09-22T17:42:49.284Z,19.53
2022-09-22T17:45:17.185Z,19.44
2022-09-22T17:48:02.352Z,19.32
2022-09-22T17:50:47.570Z,19.20
2022-09-22T17:53:32.677Z,19.11
2022-09-22T17:56:05.188Z,19.02
2022-09-22T17:58:33.445Z,18.92
2022-09-22T18:01:01.389Z,18.82
2022-09-22T18:03:29.243Z,18.75
2022-09-22T18:05:57.551Z,18.66
2022-09-22T18:08:25.689Z,18.57
2022-09-22T18:10:54.435Z,18.49
2022-09-22T18:13:23.547Z,18.43
2022-09-22T18:15:52.322Z,18.35
2022-09-22T18:18:20.133Z,18.27
2022-09-22T18:20:48.420Z,18.20
2022-09-22T18:23:16.741Z,18.12
2022-09-22T18:25:44.517Z,18.06
2022-09-22T18:28:12.270Z,18.01
2022-09-22T18:30:41.459Z,17.98
2022-09-22T18:33:09.665Z,17.92
2022-09-22T18:35:37.468Z,17.87
2022-09-22T18:38:05.334Z,17.82
2022-09-22T18:40:33.175Z,17.78
2022-09-22T18:43:00.995Z,17.72
2022-09-22T18:45:28.790Z,17.67
2022-09-22T18:47:59.347Z,17.64
2022-09-22T18:50:30.544Z,17.56
2022-09-22T18:52:58.377Z,17.51
2022-09-22T18:55:26.291Z,17.46
2022-09-22T18:57:54.270Z,17.41
2022-09-22T19:00:22.187Z,17.34
2022-09-22T19:02:50.505Z,17.29
2022-09-22T19:05:20.219Z,17.24
2022-09-22T19:07:48.373Z,17.19
2022-09-22T19:10:18.858Z,17.14
2022-09-22T19:12:47.142Z,17.08
2022-09-22T19:15:18.842Z,17.04
2022-09-22T19:17:49.597Z,16.99
2022-09-22T19:20:23.851Z,16.93
2022-09-22T19:22:53.913Z,16.88
2022-09-22T19:25:22.600Z,16.81
2022-09-22T19:27:52.468Z,16.76
2022-09-22T19:30:23.320Z,16.68
2022-09-22T19:32:52.502Z,16.60
2022-09-22T19:35:22.727Z,16.52
2022-09-22T19:37:51.833Z,16.46
2022-09-22T19:40:20.407Z,16.38
2022-09-22T19:42:49.858Z,16.32
2022-09-22T19:45:18.593Z,16.24
2022-09-22T19:47:47.167Z,16.19
2022-09-22T19:50:15.092Z,16.13
2022-09-22T19:52:44.276Z,16.08
2022-09-22T19:55:12.606Z,16.01
2022-09-22T19:57:41.782Z,15.95
2022-09-22T20:00:12.462Z,15.90
2022-09-22T20:02:40.617Z,15.83
2022-09-22T20:05:19.140Z,15.76
2022-09-22T20:07:48.337Z,15.71
2022-09-22T20:10:17.334Z,15.66
2022-09-22T20:12:45.121Z,15.61
2022-09-22T20:15:15.535Z,15.55
2022-09-22T20:17:46.312Z,15.50
2022-09-22T20:20:15.426Z,15.45
2022-09-22T20:22:43.208Z,15.39
2022-09-22T20:25:22.088Z,15.33
2022-09-22T20:27:49.846Z,15.29
2022-09-22T20:30:18.297Z,15.26
2022-09-22T20:32:46.602Z,15.20
2022-09-22T20:35:17.342Z,15.17
2022-09-22T20:37:45.560Z,15.10
2022-09-22T20:40:18.634Z,15.07
2022-09-22T20:42:46.981Z,15.02
2022-09-22T20:45:14.789Z,14.96
2022-09-22T20:47:44.409Z,14.92
2022-09-22T20:50:12.445Z,14.87
2022-09-22T20:52:40.748Z,14.81
2022-09-22T20:55:09.443Z,14.76
2022-09-22T20:57:38.981Z,14.71
2022-09-22T21:00:08.332Z,14.67
2022-09-22T21:02:36.266Z,14.61
2022-09-22T21:05:04.314Z,14.58
2022-09-22T21:07:32.541Z,14.53
2022-09-22T21:10:18.035Z,14.50
2022-09-22T21:12:47.149Z,14.45
2022-09-22T21:15:15.111Z,14.42
2022-09-22T21:17:44.170Z,14.37
2022-09-22T21:20:12.376Z,14.32
2022-09-22T21:22:40.693Z,14.28
2022-09-22T21:25:11.006Z,14.23
2022-09-22T21:27:38.885Z,14.19
2022-09-22T21:30:09.446Z,14.16
2022-09-22T21:32:37.752Z,14.13
2022-09-22T21:35:06.606Z,14.09
2022-09-22T21:37:34.336Z,14.03
2022-09-22T21:40:02.494Z,13.98
2022-09-22T21:42:31.287Z,13.95
2022-09-22T21:44:59.409Z,13.92
2022-09-22T21:47:28.524Z,13.92
2022-09-22T21:49:56.291Z,13.91
2022-09-22T21:52:24.036Z,13.89
2022-09-22T21:54:51.742Z,13.86
2022-09-22T21:57:19.476Z,13.88
2022-09-22T21:59:47.235Z,13.87
2022-09-22T22:02:15.000Z,13.87
2022-09-22T22:04:46.476Z,13.85
2022-09-22T22:07:15.314Z,13.81
2022-09-22T22:09:43.022Z,13.81
2022-09-22T22:12:12.744Z,13.80
2022-09-22T22:14:40.492Z,13.77
2022-09-22T22:17:08.536Z,13.77
2022-09-22T22:19:36.350Z,13.77
2022-09-22T22:22:06.547Z,13.76
2022-09-22T22:24:39.944Z,13.74
2022-09-22T22:27:09.962Z,13.73
2022-09-22T22:29:39.575Z,13.71
2022-09-22T22:32:09.285Z,13.71
2022-09-22T22:34:37.388Z,13.69
2022-09-22T22:37:09.514Z,13.69
2022-09-22T22:39:37.532Z,13.68
2022-09-22T22:42:05.987Z,13.65
2022-09-22T22:44:35.188Z,13.62
2022-09-22T22:47:03.125Z,13.62
2022-09-22T22:49:31.375Z,13.60
2022-09-22T22:51:59.169Z,13.59
2022-09-22T22:54:28.272Z,13.56
2022-09-22T22:56:56.235Z,13.54
2022-09-22T22:59:23.994Z,13.50
2022-09-22T23:01:51.836Z,13.45
2022-09-22T23:04:20.427Z,13.41
2022-09-22T23:06:48.507Z,13.37
2022-09-22T23:09:18.229Z,13.33
2022-09-22T23:11:47.636Z,13.29
2022-09-22T23:14:16.159Z,13.26
2022-09-22T23:16:46.592Z,13.24
2022-09-22T23:19:16.833Z,13.20
2022-09-22T23:21:48.759Z,13.14
2022-09-22T23:24:19.348Z,13.10
2022-09-22T23:26:48.586Z,13.07
2022-09-22T23:29:16.486Z,13.05
2022-09-22T23:31:44.243Z,13.00
2022-09-22T23:34:12.045Z,12.99
2022-09-22T23:36:40.588Z,12.94
2022-09-22T23:39:08.581Z,12.91
2022-09-22T23:41:37.893Z,12.91
2022-09-22T23:44:07.391Z,12.88
2022-09-22T23:46:35.273Z,12.87
2022-09-22T23:49:03.351Z,12.85
2022-09-22T23:51:31.496Z,12.83
2022-09-22T23:53:59.638Z,12.78
2022-09-22T23:56:27.604Z,12.76
2022-09-22T23:58:55.357Z,12.72
